Time;durP1;ratioP1;P1;durP2;ratioP2;P2;SDS_P1;SDS_P2;PMS_P1;PMS_P2;Temp;Humidity;BMP_temperature;BMP_pressure;BME280_temperature;BME280_humidity;BME280_pressure;Samples;Min_cycle;Max_cycle;Signal;HPM_P1;HPM_P2
2022/11/23 00:00:29;;;;;;;41.72;9.60;;;13.80;99.90;;;;;;5031991;28;20080;-64
2022/11/23 00:02:59;;;;;;;47.92;9.23;;;13.90;99.90;;;;;;5031946;28;20060;-63
2022/11/23 00:05:26;;;;;;;49.33;9.93;;;13.90;99.90;;;;;;5032253;28;20115;-64
2022/11/23 00:07:52;;;;;;;51.63;9.18;;;13.90;99.90;;;;;;5032102;28;20009;-65
2022/11/23 00:10:17;;;;;;;50.45;9.32;;;13.80;99.90;;;;;;5032379;28;20392;-64
2022/11/23 00:12:43;;;;;;;42.35;8.40;;;13.90;99.90;;;;;;5032016;28;20024;-64
2022/11/23 00:15:12;;;;;;;34.53;7.25;;;13.90;99.90;;;;;;5031780;28;20030;-64
2022/11/23 00:17:38;;;;;;;40.60;7.97;;;13.80;99.90;;;;;;5030610;28;20095;-64
2022/11/23 00:20:05;;;;;;;42.25;7.82;;;13.80;99.90;;;;;;5032113;28;20483;-64
2022/11/23 00:22:31;;;;;;;37.05;7.97;;;13.80;99.90;;;;;;5031993;28;20028;-63
2022/11/23 00:24:56;;;;;;;34.92;7.13;;;13.80;99.90;;;;;;5040802;28;20409;-65
2022/11/23 00:27:22;;;;;;;37.35;7.30;;;13.80;99.90;;;;;;5052166;28;20436;-64
2022/11/23 00:29:48;;;;;;;32.35;7.13;;;13.70;99.90;;;;;;5051559;28;20029;-64
2022/11/23 00:32:13;;;;;;;36.20;7.40;;;13.80;99.90;;;;;;5051582;28;20071;-64
2022/11/23 00:34:39;;;;;;;32.75;7.05;;;13.80;99.90;;;;;;5052015;28;20498;-64
2022/11/23 00:37:05;;;;;;;32.33;6.85;;;13.80;99.90;;;;;;5051670;28;20017;-64
2022/11/23 00:39:31;;;;;;;31.70;6.43;;;13.80;99.90;;;;;;5051514;28;20053;-64
2022/11/23 00:41:56;;;;;;;33.20;6.85;;;13.70;99.90;;;;;;5051651;28;20112;-64
2022/11/23 00:44:22;;;;;;;33.45;6.53;;;13.70;99.90;;;;;;5051250;28;20036;-64
2022/11/23 00:46:48;;;;;;;29.95;6.05;;;13.70;99.90;;;;;;5051603;28;20025;-64
2022/11/23 00:49:13;;;;;;;26.08;5.53;;;13.70;99.90;;;;;;5051841;28;20496;-65
2022/11/23 00:51:39;;;;;;;26.20;6.00;;;13.70;99.90;;;;;;5051547;28;20098;-63
2022/11/23 00:54:05;;;;;;;27.17;5.60;;;13.70;99.90;;;;;;5051748;28;20028;-65
2022/11/23 00:56:32;;;;;;;21.17;5.25;;;13.70;99.90;;;;;;5051406;28;20040;-65
2022/11/23 00:59:00;;;;;;;24.27;5.28;;;13.70;99.90;;;;;;5051408;28;20029;-64
2022/11/23 01:01:29;;;;;;;24.20;5.82;;;13.70;99.90;;;;;;5054380;28;20035;-63
2022/11/23 01:03:57;;;;;;;21.33;5.13;;;13.60;99.90;;;;;;5055092;28;20029;-64
2022/11/23 01:06:25;;;;;;;29.65;5.65;;;13.60;99.90;;;;;;5055205;28;20037;-65
2022/11/23 01:08:58;;;;;;;28.63;5.68;;;13.60;99.90;;;;;;5055209;28;20021;-64
2022/11/23 01:11:25;;;;;;;22.50;5.68;;;13.60;99.90;;;;;;5055584;28;20028;-64
2022/11/23 01:13:51;;;;;;;25.00;5.47;;;13.60;99.90;;;;;;5054933;28;20052;-64
2022/11/23 01:16:32;;;;;;;23.08;5.10;;;13.60;99.90;;;;;;5055230;28;20052;-64
2022/11/23 01:19:00;;;;;;;24.48;5.22;;;13.60;99.90;;;;;;5055045;28;20633;-64
2022/11/23 01:21:28;;;;;;;21.95;5.57;;;13.60;99.90;;;;;;5054974;28;20074;-64
2022/11/23 01:23:54;;;;;;;20.58;4.90;;;13.60;99.90;;;;;;5054999;28;20045;-64
2022/11/23 01:26:20;;;;;;;23.13;4.82;;;13.60;99.90;;;;;;5055034;28;20028;-64
2022/11/23 01:28:46;;;;;;;21.98;4.90;;;13.60;99.90;;;;;;5054597;28;20029;-64
2022/11/23 01:31:15;;;;;;;24.02;5.15;;;13.50;99.90;;;;;;5054998;28;20071;-64
2022/11/23 01:33:41;;;;;;;22.02;5.22;;;13.50;99.90;;;;;;5054755;28;20056;-64
2022/11/23 01:36:11;;;;;;;21.25;4.38;;;13.50;99.90;;;;;;5054668;28;20078;-64
2022/11/23 01:38:37;;;;;;;16.90;3.95;;;13.50;99.90;;;;;;5054702;28;20029;-65
2022/11/23 01:41:04;;;;;;;20.95;4.13;;;13.40;99.90;;;;;;5054547;28;20122;-64
2022/11/23 01:43:30;;;;;;;19.13;4.15;;;13.50;99.90;;;;;;5054094;28;20049;-64
2022/11/23 01:46:00;;;;;;;16.40;3.47;;;13.40;99.90;;;;;;5054962;28;20516;-64
2022/11/23 01:48:39;;;;;;;16.65;4.07;;;13.40;99.90;;;;;;5054550;28;20029;-63
2022/11/23 01:51:09;;;;;;;17.67;4.10;;;13.40;99.90;;;;;;5054570;28;20020;-64
2022/11/23 01:53:37;;;;;;;17.17;3.65;;;13.40;99.90;;;;;;5054416;28;20025;-63
2022/11/23 01:56:05;;;;;;;14.85;3.80;;;13.40;99.90;;;;;;5054011;28;20035;-63
2022/11/23 01:58:36;;;;;;;14.73;3.72;;;13.40;99.90;;;;;;5054457;28;20414;-63
2022/11/23 02:01:01;;;;;;;17.85;3.50;;;13.40;99.90;;;;;;5054599;28;20025;-63
2022/11/23 02:03:29;;;;;;;14.68;3.53;;;13.40;99.90;;;;;;5054153;28;20021;-64
2022/11/23 02:06:01;;;;;;;14.68;3.90;;;13.40;99.90;;;;;;5054515;28;20112;-64
2022/11/23 02:08:28;;;;;;;13.50;3.40;;;13.40;99.90;;;;;;5054201;28;20386;-64
2022/11/23 02:10:58;;;;;;;13.70;3.45;;;13.30;99.90;;;;;;5053791;28;20029;-65
2022/11/23 02:13:26;;;;;;;12.70;3.53;;;13.40;99.90;;;;;;5054580;28;20017;-64
2022/11/23 02:15:53;;;;;;;16.67;3.70;;;13.40;99.90;;;;;;5054078;28;20021;-64
2022/11/23 02:18:30;;;;;;;12.48;3.35;;;13.30;99.90;;;;;;5054035;28;20466;-63
2022/11/23 02:21:00;;;;;;;15.02;3.63;;;13.40;99.90;;;;;;5053561;28;20395;-62
2022/11/23 02:23:39;;;;;;;14.50;3.33;;;13.40;99.90;;;;;;5054139;28;20031;-63
2022/11/23 02:26:26;;;;;;;16.90;3.75;;;13.30;99.90;;;;;;5053592;28;20033;-64
2022/11/23 02:29:17;;;;;;;13.75;3.35;;;13.30;99.90;;;;;;5053831;28;20017;-64
2022/11/23 02:31:43;;;;;;;16.65;3.63;;;13.40;99.90;;;;;;5050724;28;20056;-64
2022/11/23 02:34:09;;;;;;;11.57;2.70;;;13.30;99.90;;;;;;5053732;28;20060;-64
2022/11/23 02:36:43;;;;;;;15.82;2.97;;;13.30;99.90;;;;;;5053584;28;20386;-63
2022/11/23 02:39:16;;;;;;;15.43;3.53;;;13.30;99.90;;;;;;5053667;28;20013;-67
2022/11/23 02:41:44;;;;;;;13.10;3.00;;;13.30;99.90;;;;;;5053696;28;20057;-64
2022/11/23 02:44:43;;;;;;;16.08;3.50;;;13.30;99.90;;;;;;5053254;28;20497;-64
2022/11/23 02:47:09;;;;;;;12.60;3.00;;;13.20;99.90;;;;;;5053565;28;20025;-63
2022/11/23 02:49:36;;;;;;;12.63;3.20;;;13.20;99.90;;;;;;5053385;28;20099;-63
2022/11/23 02:52:02;;;;;;;14.95;3.42;;;13.30;99.90;;;;;;5053233;28;20086;-64
2022/11/23 02:54:28;;;;;;;13.60;3.10;;;13.30;99.90;;;;;;5053118;28;20025;-64
2022/11/23 02:56:54;;;;;;;13.05;3.28;;;13.30;99.90;;;;;;5053385;28;20497;-64
2022/11/23 02:59:20;;;;;;;13.13;3.10;;;13.30;99.90;;;;;;5053335;28;20050;-63
2022/11/23 03:01:46;;;;;;;11.90;2.90;;;13.20;99.90;;;;;;5053162;28;20130;-64
2022/11/23 03:04:12;;;;;;;13.02;3.50;;;13.20;99.90;;;;;;5053158;28;20036;-64
2022/11/23 03:06:38;;;;;;;17.40;3.72;;;13.20;99.90;;;;;;5053376;28;20107;-63
2022/11/23 03:09:04;;;;;;;18.60;3.97;;;13.20;99.90;;;;;;5053110;28;20101;-64
2022/11/23 03:11:30;;;;;;;10.05;3.03;;;13.20;99.90;;;;;;5052908;28;20386;-64
2022/11/23 03:13:56;;;;;;;14.32;3.10;;;13.10;99.90;;;;;;5052807;28;20036;-64
2022/11/23 03:16:22;;;;;;;16.58;3.15;;;13.20;99.90;;;;;;5053100;28;20382;-64
2022/11/23 03:18:48;;;;;;;14.60;3.08;;;13.10;99.90;;;;;;5052864;28;20036;-64
2022/11/23 03:21:13;;;;;;;13.68;3.10;;;13.20;99.90;;;;;;5052798;28;20036;-64
2022/11/23 03:23:39;;;;;;;10.52;2.58;;;13.10;99.90;;;;;;5051844;28;20367;-64
2022/11/23 03:26:05;;;;;;;13.65;3.08;;;13.10;99.90;;;;;;5053112;28;20033;-64
2022/11/23 03:28:31;;;;;;;12.98;2.92;;;13.10;99.90;;;;;;5052749;28;20021;-64
2022/11/23 03:30:56;;;;;;;9.18;2.63;;;13.10;99.90;;;;;;5052713;28;20029;-64
2022/11/23 03:33:22;;;;;;;15.23;3.20;;;13.00;99.90;;;;;;5052476;28;20506;-64
2022/11/23 03:35:48;;;;;;;10.02;2.58;;;13.00;99.90;;;;;;5052814;28;20078;-64
2022/11/23 03:38:14;;;;;;;12.23;2.80;;;13.00;99.90;;;;;;5052128;28;20033;-64
2022/11/23 03:40:39;;;;;;;12.18;3.00;;;13.00;99.90;;;;;;5052323;28;20049;-64
2022/11/23 03:43:05;;;;;;;9.13;2.50;;;13.00;99.90;;;;;;5052327;28;20025;-64
2022/11/23 03:45:31;;;;;;;11.57;2.55;;;13.00;99.90;;;;;;5052595;28;20032;-64
2022/11/23 03:47:57;;;;;;;12.13;2.70;;;13.00;99.90;;;;;;5052355;28;20397;-64
2022/11/23 03:50:23;;;;;;;10.30;2.40;;;12.90;99.90;;;;;;5052243;28;20032;-64
2022/11/23 03:52:48;;;;;;;7.90;2.30;;;12.90;99.90;;;;;;5051912;28;20025;-64
2022/11/23 03:55:14;;;;;;;8.55;2.35;;;13.00;99.90;;;;;;5052329;28;20463;-63
2022/11/23 03:57:40;;;;;;;9.35;2.33;;;12.90;99.90;;;;;;5051782;28;20100;-63
2022/11/23 04:00:07;;;;;;;8.13;2.20;;;12.90;99.90;;;;;;5052069;28;20025;-64
2022/11/23 04:02:33;;;;;;;8.70;2.22;;;12.90;99.90;;;;;;5051992;28;20036;-64
2022/11/23 04:05:00;;;;;;;7.60;2.08;;;12.80;99.90;;;;;;5052135;28;20047;-64
2022/11/23 04:07:26;;;;;;;8.40;2.10;;;12.80;99.90;;;;;;5051850;28;20099;-64
2022/11/23 04:09:51;;;;;;;8.25;2.13;;;12.80;99.90;;;;;;5051900;28;20116;-64
2022/11/23 04:12:17;;;;;;;10.98;2.28;;;12.70;99.90;;;;;;5050494;28;20025;-64
2022/11/23 04:14:43;;;;;;;7.93;2.00;;;12.70;99.90;;;;;;5051875;28;20024;-64
2022/11/23 04:17:09;;;;;;;4.95;1.80;;;12.70;99.90;;;;;;5051895;28;20446;-64
2022/11/23 04:19:34;;;;;;;6.65;2.28;;;12.70;99.90;;;;;;5052096;28;20083;-64
2022/11/23 04:22:00;;;;;;;6.18;1.70;;;12.60;99.90;;;;;;5051365;28;20086;-63
2022/11/23 04:24:26;;;;;;;9.23;2.00;;;12.70;99.90;;;;;;5051765;28;20505;-64
2022/11/23 04:26:52;;;;;;;4.07;1.45;;;12.60;99.90;;;;;;5051669;28;20025;-64
2022/11/23 04:29:17;;;;;;;5.03;1.60;;;12.60;99.90;;;;;;5051601;28;20065;-64
2022/11/23 04:31:44;;;;;;;5.15;1.50;;;12.60;99.90;;;;;;5052006;28;20021;-64
2022/11/23 04:34:09;;;;;;;4.72;1.60;;;12.60;99.90;;;;;;5051610;28;20381;-63
2022/11/23 04:36:35;;;;;;;6.20;1.52;;;12.70;99.90;;;;;;5054614;28;20036;-64
2022/11/23 04:39:02;;;;;;;3.53;1.30;;;12.60;99.90;;;;;;5055816;28;20088;-64
2022/11/23 04:41:29;;;;;;;3.90;1.38;;;12.60;99.90;;;;;;5055349;28;20064;-64
2022/11/23 04:43:55;;;;;;;4.57;1.48;;;12.60;99.90;;;;;;5055871;28;20036;-64
2022/11/23 04:46:20;;;;;;;3.55;1.50;;;12.60;99.90;;;;;;5055603;28;20083;-63
2022/11/23 04:48:46;;;;;;;5.93;1.60;;;12.60;99.90;;;;;;5055493;28;20033;-64
2022/11/23 04:51:12;;;;;;;3.85;1.30;;;12.50;99.90;;;;;;5055401;28;20059;-64
2022/11/23 04:53:39;;;;;;;2.95;1.30;;;12.50;99.90;;;;;;5055908;28;20085;-64
2022/11/23 04:56:05;;;;;;;8.13;1.58;;;12.50;99.90;;;;;;5055266;28;20033;-63
2022/11/23 04:58:31;;;;;;;4.72;1.35;;;12.60;99.90;;;;;;5055769;28;20021;-64
2022/11/23 05:00:57;;;;;;;3.05;1.20;;;12.60;99.90;;;;;;5055053;28;20059;-64
2022/11/23 05:03:23;;;;;;;2.92;1.50;;;12.60;99.90;;;;;;5055573;28;20067;-64
2022/11/23 05:05:49;;;;;;;4.15;1.20;;;12.60;99.90;;;;;;5055060;28;20029;-63
2022/11/23 05:08:14;;;;;;;2.35;1.25;;;12.60;99.90;;;;;;5055287;28;20025;-63
2022/11/23 05:10:40;;;;;;;2.90;1.40;;;12.60;99.90;;;;;;5055064;28;20078;-63
2022/11/23 05:13:06;;;;;;;3.53;1.23;;;12.60;99.90;;;;;;5055530;28;20191;-63
2022/11/23 05:15:32;;;;;;;3.03;1.20;;;12.70;99.90;;;;;;5055087;28;20033;-63
2022/11/23 05:18:05;;;;;;;3.65;1.35;;;12.60;99.90;;;;;;5055156;28;20056;-64
2022/11/23 05:20:31;;;;;;;;;;;12.60;99.90;;;;;;5055163;28;20025;-64
2022/11/23 05:22:57;;;;;;;2.90;1.30;;;12.60;99.90;;;;;;5055008;28;20034;-64
2022/11/23 05:25:23;;;;;;;3.38;1.15;;;12.70;99.90;;;;;;5054642;28;20488;-64
2022/11/23 05:27:50;;;;;;;2.42;1.20;;;12.70;99.90;;;;;;5055345;28;20516;-62
2022/11/23 05:30:15;;;;;;;3.50;1.13;;;12.70;99.90;;;;;;5053544;28;20100;-63
2022/11/23 05:32:41;;;;;;;1.75;1.08;;;12.80;99.90;;;;;;5054745;28;20033;-63
2022/11/23 05:35:07;;;;;;;2.78;1.00;;;12.80;99.90;;;;;;5054427;28;20108;-63
2022/11/23 05:37:33;;;;;;;2.35;1.10;;;12.70;99.90;;;;;;5054781;28;20028;-64
2022/11/23 05:39:59;;;;;;;2.65;1.35;;;12.70;99.90;;;;;;5054890;28;20045;-64
2022/11/23 05:42:25;;;;;;;2.13;1.20;;;12.80;99.90;;;;;;5054827;28;20035;-63
2022/11/23 05:44:50;;;;;;;1.65;1.13;;;12.90;99.90;;;;;;5054389;28;20055;-64
2022/11/23 05:47:16;;;;;;;1.77;1.00;;;12.90;99.90;;;;;;5054213;28;20052;-64
2022/11/23 05:49:42;;;;;;;4.07;1.05;;;12.90;99.90;;;;;;5054609;28;20029;-64
2022/11/23 05:52:07;;;;;;;3.00;1.05;;;12.90;99.90;;;;;;5054496;28;20482;-62
2022/11/23 05:54:33;;;;;;;2.72;1.20;;;13.00;99.90;;;;;;5054459;28;20511;-64
2022/11/23 05:56:59;;;;;;;2.28;1.42;;;12.90;99.90;;;;;;5054696;28;20112;-65
2022/11/23 05:59:24;;;;;;;2.65;1.30;;;13.00;99.90;;;;;;5054385;28;20025;-63
2022/11/23 06:01:51;;;;;;;3.33;1.67;;;13.00;99.90;;;;;;5054278;28;20036;-64
2022/11/23 06:04:16;;;;;;;2.40;1.20;;;13.00;99.90;;;;;;5054126;28;20033;-63
2022/11/23 06:06:42;;;;;;;1.98;1.15;;;12.90;99.90;;;;;;5054279;28;20363;-62
2022/11/23 06:09:08;;;;;;;1.83;1.20;;;13.00;99.90;;;;;;5054115;28;20021;-62
2022/11/23 06:11:34;;;;;;;3.42;1.30;;;13.00;99.90;;;;;;5054101;28;20031;-64
2022/11/23 06:14:00;;;;;;;3.03;1.30;;;13.00;99.90;;;;;;5054409;28;20028;-64
2022/11/23 06:16:25;;;;;;;2.97;1.20;;;13.00;99.90;;;;;;5052784;28;20497;-63
2022/11/23 06:18:51;;;;;;;1.40;1.10;;;13.00;99.90;;;;;;5053721;28;20045;-64
2022/11/23 06:21:17;;;;;;;1.83;1.20;;;13.00;99.90;;;;;;5053829;28;20041;-63
2022/11/23 06:23:45;;;;;;;1.30;1.00;;;13.00;99.90;;;;;;5053628;28;20032;-63
2022/11/23 06:26:11;;;;;;;1.75;0.90;;;13.00;99.90;;;;;;5054093;28;20040;-64
2022/11/23 06:28:36;;;;;;;1.27;1.08;;;13.00;99.90;;;;;;5053911;28;20029;-64
2022/11/23 06:31:04;;;;;;;1.33;1.00;;;13.00;99.90;;;;;;5053862;28;20412;-64
2022/11/23 06:33:30;;;;;;;2.47;1.10;;;13.00;99.90;;;;;;5053383;28;20533;-63
2022/11/23 06:36:00;;;;;;;1.13;0.90;;;13.00;99.90;;;;;;5053801;28;20120;-64
2022/11/23 06:38:27;;;;;;;1.38;1.00;;;13.00;99.90;;;;;;5053619;28;20060;-64
2022/11/23 06:40:57;;;;;;;1.73;1.10;;;13.00;99.90;;;;;;5053473;28;20149;-64
2022/11/23 06:43:23;;;;;;;1.45;0.95;;;13.00;99.90;;;;;;5053906;28;20420;-64
2022/11/23 06:45:49;;;;;;;1.77;1.20;;;13.00;99.90;;;;;;5051752;28;20024;-64
2022/11/23 06:48:14;;;;;;;2.38;1.45;;;13.00;99.90;;;;;;5053472;28;20086;-63
2022/11/23 06:50:40;;;;;;;1.60;1.20;;;13.00;99.90;;;;;;5053482;28;20032;-64
2022/11/23 06:53:06;;;;;;;1.17;0.80;;;13.00;99.90;;;;;;5053106;28;20021;-64
2022/11/23 06:55:31;;;;;;;2.58;0.90;;;13.00;99.90;;;;;;5053275;28;20017;-64
2022/11/23 06:58:00;;;;;;;1.83;0.82;;;13.00;99.90;;;;;;5052648;28;20028;-64
2022/11/23 07:00:26;;;;;;;1.33;0.98;;;13.10;99.90;;;;;;5053192;28;20108;-64
2022/11/23 07:02:53;;;;;;;1.73;1.05;;;13.10;99.90;;;;;;5053050;28;20099;-64
2022/11/23 07:05:19;;;;;;;1.75;1.10;;;13.10;99.90;;;;;;5052874;28;20418;-64
2022/11/23 07:07:44;;;;;;;1.17;0.88;;;13.20;99.90;;;;;;5052999;28;20017;-64
2022/11/23 07:10:11;;;;;;;2.25;0.95;;;13.20;99.90;;;;;;5053168;28;20115;-63
2022/11/23 07:12:36;;;;;;;0.90;0.80;;;13.20;99.90;;;;;;5052948;28;20158;-64
2022/11/23 07:15:02;;;;;;;1.27;1.00;;;13.20;99.90;;;;;;5052489;28;20033;-64
2022/11/23 07:17:28;;;;;;;1.88;1.10;;;13.20;99.90;;;;;;5053267;28;20111;-64
2022/11/23 07:19:54;;;;;;;3.70;1.42;;;13.20;99.90;;;;;;5052686;28;20163;-64
2022/11/23 07:22:19;;;;;;;2.00;1.33;;;13.20;99.90;;;;;;5052576;28;20036;-64
2022/11/23 07:24:45;;;;;;;1.55;1.00;;;13.20;99.90;;;;;;5052811;28;20031;-64
2022/11/23 07:27:11;;;;;;;1.60;1.10;;;13.30;99.90;;;;;;5051700;28;20493;-64
2022/11/23 07:29:36;;;;;;;2.35;1.20;;;13.30;99.90;;;;;;5052480;28;20056;-63
2022/11/23 07:32:02;;;;;;;1.50;1.10;;;13.30;99.90;;;;;;5052551;28;20496;-64
2022/11/23 07:34:28;;;;;;;3.17;1.35;;;13.40;99.90;;;;;;5052525;28;20033;-63
2022/11/23 07:36:54;;;;;;;4.18;1.30;;;13.40;99.90;;;;;;5052313;28;20449;-63
2022/11/23 07:39:19;;;;;;;5.63;1.50;;;13.40;99.90;;;;;;5052500;28;20099;-64
2022/11/23 07:41:48;;;;;;;6.30;1.30;;;13.50;99.90;;;;;;5052359;28;20037;-65
2022/11/23 07:44:15;;;;;;;2.50;1.30;;;13.50;99.90;;;;;;5051687;28;20053;-65
2022/11/23 07:46:40;;;;;;;2.88;1.48;;;13.50;99.90;;;;;;5052293;28;20032;-64
2022/11/23 07:49:06;;;;;;;2.85;1.70;;;13.50;99.90;;;;;;5052128;28;20492;-64
2022/11/23 07:51:32;;;;;;;9.95;2.00;;;13.50;99.90;;;;;;5052166;28;20056;-63
2022/11/23 07:53:58;;;;;;;7.43;2.10;;;13.60;99.90;;;;;;5052431;28;20075;-63
2022/11/23 07:56:24;;;;;;;7.65;2.25;;;13.80;99.90;;;;;;5052119;28;20320;-62
2022/11/23 07:58:50;;;;;;;11.57;3.00;;;13.90;99.90;;;;;;5051651;28;20116;-64
2022/11/23 08:01:17;;;;;;;12.40;3.58;;;14.10;99.90;;;;;;5052463;28;20100;-64
2022/11/23 08:03:44;;;;;;;16.48;3.85;;;14.30;99.90;;;;;;5051744;28;20035;-62
2022/11/23 08:06:10;;;;;;;19.38;4.20;;;14.60;99.90;;;;;;5051982;28;20060;-63
2022/11/23 08:08:37;;;;;;;16.45;4.93;;;14.60;99.90;;;;;;5051767;28;20036;-64
2022/11/23 08:11:04;;;;;;;25.00;5.30;;;14.60;99.90;;;;;;5051311;28;20061;-64
2022/11/23 08:13:31;;;;;;;20.45;4.70;;;14.70;99.90;;;;;;5050891;28;20013;-63
2022/11/23 08:15:56;;;;;;;14.57;3.33;;;14.80;99.90;;;;;;5051411;28;20079;-65
2022/11/23 08:18:25;;;;;;;17.17;3.80;;;14.80;99.90;;;;;;5051801;28;20033;-63
2022/11/23 08:20:51;;;;;;;18.67;3.88;;;14.80;99.90;;;;;;5051184;28;20477;-63
2022/11/23 08:23:17;;;;;;;19.70;3.80;;;14.60;99.90;;;;;;5051173;28;20032;-63
2022/11/23 08:25:43;;;;;;;18.88;4.40;;;14.60;99.90;;;;;;5050881;28;20048;-64
2022/11/23 08:28:09;;;;;;;19.83;4.75;;;14.60;99.90;;;;;;5050759;28;20013;-64
2022/11/23 08:30:35;;;;;;;29.20;5.30;;;14.60;99.90;;;;;;5051448;28;20430;-63
2022/11/23 08:33:08;;;;;;;24.08;4.63;;;14.80;99.90;;;;;;5050485;28;20028;-64
2022/11/23 08:35:36;;;;;;;31.17;5.78;;;15.00;99.90;;;;;;5048918;28;20029;-64
2022/11/23 08:38:03;;;;;;;29.98;5.88;;;15.10;99.90;;;;;;5051194;28;20017;-63
2022/11/23 08:40:29;;;;;;;35.35;7.30;;;15.20;99.90;;;;;;5050891;28;20053;-63
2022/11/23 08:42:55;;;;;;;32.72;6.88;;;15.00;99.90;;;;;;5051204;28;20033;-64
2022/11/23 08:45:21;;;;;;;32.15;6.25;;;15.10;99.90;;;;;;5051786;28;20041;-65
2022/11/23 08:47:46;;;;;;;34.42;7.28;;;15.30;99.90;;;;;;5051425;28;20426;-64
2022/11/23 08:50:12;;;;;;;38.15;7.22;;;15.60;99.90;;;;;;5050356;28;20456;-64
2022/11/23 08:52:38;;;;;;;34.30;7.13;;;16.60;99.90;;;;;;5050140;28;20096;-64
2022/11/23 08:55:04;;;;;;;35.47;7.38;;;18.30;99.90;;;;;;5051041;28;20519;-65
2022/11/23 08:57:30;;;;;;;37.03;8.32;;;19.80;99.90;;;;;;5051123;28;20021;-65
2022/11/23 08:59:56;;;;;;;36.67;7.30;;;20.20;99.90;;;;;;5051424;28;20478;-65
2022/11/23 09:02:22;;;;;;;30.90;7.85;;;20.30;99.90;;;;;;5051428;28;20021;-65
2022/11/23 09:04:48;;;;;;;32.15;7.03;;;21.40;99.90;;;;;;5051351;28;20033;-66
2022/11/23 09:07:13;;;;;;;33.38;7.75;;;20.80;99.90;;;;;;5051486;28;20025;-64
2022/11/23 09:09:39;;;;;;;34.70;8.02;;;21.10;99.90;;;;;;5051469;28;20033;-64
2022/11/23 09:12:05;;;;;;;35.40;8.20;;;22.20;99.90;;;;;;5050822;28;20022;-65
2022/11/23 09:14:31;;;;;;;37.03;9.23;;;22.00;99.90;;;;;;5051485;28;20490;-65
2022/11/23 09:16:59;;;;;;;36.75;8.95;;;22.20;99.90;;;;;;5050917;28;20501;-64
2022/11/23 09:19:25;;;;;;;36.60;9.43;;;22.60;99.90;;;;;;5051538;28;20515;-65
2022/11/23 09:21:51;;;;;;;39.25;8.35;;;23.00;99.90;;;;;;5053397;28;20057;-64
2022/11/23 09:24:16;;;;;;;32.28;7.97;;;20.80;99.90;;;;;;5054873;28;20032;-65
2022/11/23 09:26:42;;;;;;;34.25;8.38;;;19.10;99.90;;;;;;5054794;28;20398;-65
2022/11/23 09:29:08;;;;;;;32.60;8.05;;;18.00;99.90;;;;;;5055114;28;20025;-65
2022/11/23 09:31:36;;;;;;;38.67;9.18;;;17.80;99.90;;;;;;5054809;28;20065;-65
2022/11/23 09:34:03;;;;;;;30.95;7.90;;;17.30;99.90;;;;;;5055216;28;20737;-65
2022/11/23 09:36:29;;;;;;;32.55;7.22;;;16.70;99.90;;;;;;5054761;28;20049;-65
2022/11/23 09:38:55;;;;;;;33.85;7.93;;;16.50;99.90;;;;;;5054764;28;20053;-64
2022/11/23 09:41:53;;;;;;;30.45;7.05;;;16.10;99.90;;;;;;5054339;28;20052;-64
2022/11/23 09:44:43;;;;;;;30.70;7.18;;;16.30;99.90;;;;;;5032653;28;20514;-65
2022/11/23 09:47:20;;;;;;;29.55;7.18;;;16.20;99.90;;;;;;5032256;28;20037;-65
2022/11/23 09:50:10;;;;;;;26.67;7.00;;;19.70;99.90;;;;;;5032454;28;20033;-65
2022/11/23 09:52:39;;;;;;;28.27;6.10;;;21.10;99.90;;;;;;5032093;28;20022;-67
2022/11/23 09:55:16;;;;;;;24.35;6.85;;;21.70;99.90;;;;;;5032408;28;20444;-64
2022/11/23 09:57:45;;;;;;;29.05;6.88;;;22.70;99.90;;;;;;5032516;28;20084;-63
2022/11/23 10:00:19;;;;;;;24.25;6.35;;;23.20;99.90;;;;;;5032363;28;20411;-64
2022/11/23 10:02:46;;;;;;;22.63;6.38;;;22.60;99.90;;;;;;5032327;28;20030;-64
2022/11/23 10:05:21;;;;;;;27.35;6.55;;;23.20;99.90;;;;;;5032738;28;20037;-64
2022/11/23 10:08:02;;;;;;;26.65;6.53;;;22.80;99.90;;;;;;5032600;28;20552;-65
2022/11/23 10:10:38;;;;;;;23.58;5.90;;;23.40;99.90;;;;;;5032526;28;20045;-65
2022/11/23 10:13:40;;;;;;;25.88;6.45;;;24.20;99.90;;;;;;5016112;28;20029;-64
2022/11/23 10:16:26;;;;;;;24.48;6.93;;;24.10;99.90;;;;;;5031995;28;20028;-64
2022/11/23 10:18:57;;;;;;;29.00;6.50;;;23.10;99.90;;;;;;5033333;28;20406;-65
2022/11/23 10:21:54;;;;;;;26.45;6.32;;;22.80;99.90;;;;;;5054345;28;20021;-65
2022/11/23 10:24:28;;;;;;;30.15;7.28;;;23.00;99.90;;;;;;5053936;28;20035;-65
2022/11/23 10:26:54;;;;;;;25.70;7.18;;;23.30;99.90;;;;;;5055201;28;20036;-65
2022/11/23 10:29:35;;;;;;;27.58;6.55;;;23.80;99.90;;;;;;5053832;28;20079;-64
2022/11/23 10:32:01;;;;;;;33.13;7.50;;;23.20;99.90;;;;;;5053198;28;20025;-64
2022/11/23 10:34:55;;;;;;;24.92;7.18;;;22.60;99.90;;;;;;5053105;28;20073;-64
2022/11/23 10:37:21;;;;;;;28.52;7.07;;;22.20;99.90;;;;;;5033691;28;20029;-64
2022/11/23 10:39:47;;;;;;;22.63;6.88;;;22.70;99.90;;;;;;5034128;28;20048;-65
2022/11/23 10:42:29;;;;;;;27.98;6.75;;;22.90;99.90;;;;;;5033749;28;20057;-65
2022/11/23 10:44:57;;;;;;;25.52;6.50;;;21.90;99.90;;;;;;5034131;28;20556;-65
2022/11/23 10:47:35;;;;;;;31.58;6.82;;;22.90;99.90;;;;;;5033400;28;20026;-64
2022/11/23 10:50:00;;;;;;;26.70;6.57;;;22.50;99.90;;;;;;5033738;28;20554;-65
2022/11/23 10:52:32;;;;;;;25.88;6.63;;;22.00;99.90;;;;;;5033205;28;20108;-64
2022/11/23 10:55:00;;;;;;;26.10;6.70;;;21.00;99.90;;;;;;5033778;28;20126;-65
2022/11/23 10:57:43;;;;;;;27.63;6.78;;;21.00;99.90;;;;;;5033760;28;20029;-65
2022/11/23 11:00:14;;;;;;;26.17;6.53;;;21.10;99.90;;;;;;5033692;28;20022;-65
2022/11/23 11:02:53;;;;;;;26.77;6.53;;;21.60;99.90;;;;;;5033363;28;20541;-65
2022/11/23 11:05:47;;;;;;;25.27;6.38;;;21.50;99.90;;;;;;5033707;28;20044;-65
2022/11/23 11:08:16;;;;;;;26.75;6.45;;;21.60;99.90;;;;;;5034035;28;20044;-64
2022/11/23 11:10:51;;;;;;;30.90;7.38;;;19.80;99.90;;;;;;5033050;28;20021;-65
2022/11/23 11:13:25;;;;;;;33.38;7.40;;;20.20;99.90;;;;;;5033012;28;20025;-64
2022/11/23 11:16:02;;;;;;;31.30;8.38;;;21.50;99.90;;;;;;5033232;28;20025;-65
2022/11/23 11:18:32;;;;;;;28.38;8.25;;;20.60;99.90;;;;;;5032879;28;20422;-65
2022/11/23 11:21:33;;;;;;;33.60;9.55;;;20.70;99.90;;;;;;5032369;28;20022;-65
2022/11/23 11:24:05;;;;;;;31.02;7.10;;;18.80;99.90;;;;;;5033758;28;20101;-64
2022/11/23 11:26:37;;;;;;;32.53;8.48;;;18.00;99.90;;;;;;5052701;28;20112;-65
2022/11/23 11:29:05;;;;;;;30.80;8.02;;;19.60;99.90;;;;;;5052752;28;20142;-65
2022/11/23 11:32:02;;;;;;;28.60;7.53;;;20.40;99.90;;;;;;5052702;28;20096;-65
2022/11/23 11:34:42;;;;;;;28.45;8.77;;;20.60;99.90;;;;;;5052736;28;20083;-64
2022/11/23 11:37:08;;;;;;;28.02;8.25;;;19.70;99.90;;;;;;5052190;28;20024;-64
2022/11/23 11:39:40;;;;;;;30.85;9.45;;;18.30;99.90;;;;;;5052756;28;20045;-64
2022/11/23 11:42:13;;;;;;;32.67;8.18;;;19.70;99.90;;;;;;5052364;28;20017;-65
2022/11/23 11:44:40;;;;;;;33.33;8.23;;;19.50;99.90;;;;;;5050621;28;20398;-64
2022/11/23 11:47:30;;;;;;;34.78;8.13;;;19.20;99.90;;;;;;5052335;28;20051;-64
2022/11/23 11:50:00;;;;;;;35.25;8.82;;;19.30;99.90;;;;;;5052447;28;20076;-65
2022/11/23 11:52:36;;;;;;;32.45;8.93;;;18.70;99.90;;;;;;5052340;28;20049;-64
2022/11/23 11:55:18;;;;;;;31.40;7.38;;;18.20;99.90;;;;;;5052204;28;20104;-64
2022/11/23 11:57:49;;;;;;;31.17;7.55;;;18.70;99.90;;;;;;5052333;28;20025;-64
2022/11/23 12:00:18;;;;;;;23.75;6.10;;;18.50;99.90;;;;;;5052614;28;20021;-62
2022/11/23 12:03:08;;;;;;;24.98;6.28;;;17.70;99.90;;;;;;5052031;28;20021;-64
2022/11/23 12:05:48;;;;;;;25.30;7.07;;;17.40;99.90;;;;;;5052093;28;20032;-64
2022/11/23 12:08:39;;;;;;;24.33;6.97;;;17.10;99.90;;;;;;5053240;28;20025;-64
2022/11/23 12:11:06;;;;;;;27.42;7.05;;;16.70;99.90;;;;;;5053075;28;20035;-64
2022/11/23 12:13:34;;;;;;;31.50;6.93;;;16.50;99.90;;;;;;5053131;28;20021;-64
2022/11/23 12:16:35;;;;;;;22.50;6.50;;;16.60;99.90;;;;;;5052765;28;20108;-64
2022/11/23 12:19:23;;;;;;;25.30;7.03;;;16.40;99.90;;;;;;5030526;28;20046;-64
2022/11/23 12:21:49;;;;;;;28.02;6.75;;;16.40;99.90;;;;;;5030792;28;20498;-64
2022/11/23 12:24:38;;;;;;;29.23;7.90;;;16.30;99.90;;;;;;5030173;28;20087;-64
2022/11/23 12:27:24;;;;;;;28.45;6.45;;;16.50;99.90;;;;;;5030732;28;20518;-63
2022/11/23 12:30:22;;;;;;;26.73;6.90;;;16.90;99.90;;;;;;5030072;28;20126;-64
2022/11/23 12:33:20;;;;;;;27.90;5.93;;;17.00;99.90;;;;;;5030281;28;20538;-64
2022/11/23 12:36:13;;;;;;;26.40;6.43;;;16.70;99.90;;;;;;5029665;28;20124;-64
2022/11/23 12:39:02;;;;;;;27.92;7.10;;;16.50;99.90;;;;;;5031012;28;20111;-64
2022/11/23 12:41:58;;;;;;;28.85;6.90;;;16.50;99.90;;;;;;5030307;28;20068;-64
2022/11/23 12:44:47;;;;;;;31.15;7.03;;;16.40;99.90;;;;;;5029929;28;20065;-64
2022/11/23 12:47:43;;;;;;;29.48;7.05;;;16.30;99.90;;;;;;5030133;28;20029;-64
2022/11/23 12:50:44;;;;;;;29.67;7.30;;;16.20;99.90;;;;;;5029603;28;20049;-64
2022/11/23 12:53:37;;;;;;;27.63;6.93;;;16.40;99.90;;;;;;5030089;28;20061;-63